Time;durP1;ratioP1;P1;durP2;ratioP2;P2;SDS_P1;SDS_P2;PMS_P1;PMS_P2;Temp;Humidity;BMP_temperature;BMP_pressure;BME280_temperature;BME280_humidity;BME280_pressure;Samples;Min_cycle;Max_cycle;Signal;HPM_P1;HPM_P2
2022/07/07 00:02:14;;;;;;;1.83;0.77;;;;;;;27.87;35.40;102661.25;6246940;23;20130;-42
2022/07/07 00:04:41;;;;;;;3.08;0.88;;;;;;;27.73;35.47;102637.16;6246574;23;20008;-42
2022/07/07 00:07:10;;;;;;;1.92;1.00;;;;;;;27.76;35.51;102644.25;6245152;23;20015;-43
2022/07/07 00:09:39;;;;;;;2.55;0.80;;;;;;;27.80;35.49;102666.34;6219763;23;20007;-43
2022/07/07 00:12:08;;;;;;;2.53;0.90;;;;;;;27.75;35.52;102659.19;6246149;23;20018;-44
2022/07/07 00:14:37;;;;;;;2.83;1.13;;;;;;;27.69;35.47;102637.94;6246660;23;20008;-43
2022/07/07 00:17:05;;;;;;;2.05;1.00;;;;;;;27.74;35.53;102649.50;6246253;23;20053;-44
2022/07/07 00:19:34;;;;;;;2.70;0.85;;;;;;;27.74;35.43;102638.97;6245365;23;20000;-42
2022/07/07 00:22:03;;;;;;;1.23;0.80;;;;;;;27.78;35.36;102641.66;6246407;23;20005;-46
2022/07/07 00:24:32;;;;;;;3.20;0.80;;;;;;;27.75;35.40;102639.84;6244810;23;20012;-46
2022/07/07 00:27:00;;;;;;;2.00;0.80;;;;;;;27.72;35.52;102634.47;6219937;23;20284;-45
2022/07/07 00:29:29;;;;;;;2.97;0.60;;;;;;;27.67;35.52;102626.47;6245650;23;20033;-42
2022/07/07 00:31:57;;;;;;;3.00;0.82;;;;;;;27.71;35.34;102638.00;6246000;23;20308;-43
2022/07/07 00:34:25;;;;;;;2.60;0.98;;;;;;;27.69;35.52;102632.69;6246417;23;20000;-43
2022/07/07 00:36:54;;;;;;;3.78;0.60;;;;;;;27.70;35.34;102633.59;6246431;23;20007;-43
2022/07/07 00:39:22;;;;;;;3.85;0.98;;;;;;;27.65;35.64;102633.44;6246696;23;20074;-43
2022/07/07 00:41:51;;;;;;;3.22;0.88;;;;;;;27.66;35.55;102629.97;6246509;23;20004;-43
2022/07/07 00:44:18;;;;;;;3.05;1.00;;;;;;;27.63;35.39;102629.00;6245987;23;20043;-49
2022/07/07 00:46:47;;;;;;;1.40;0.70;;;;;;;27.58;35.52;102619.22;6246219;23;20004;-48
2022/07/07 00:49:19;;;;;;;2.05;0.73;;;;;;;27.68;35.35;102630.00;6246078;23;20004;-42
2022/07/07 00:51:48;;;;;;;1.40;0.57;;;;;;;27.70;35.22;102630.94;6246442;23;20073;-47
2022/07/07 00:54:16;;;;;;;1.58;0.75;;;;;;;27.72;35.48;102629.22;6219253;23;20024;-43
2022/07/07 00:56:45;;;;;;;2.20;0.63;;;;;;;27.74;35.38;102636.31;6220022;23;20008;-43
2022/07/07 00:59:13;;;;;;;2.85;0.93;;;;;;;27.62;35.29;102637.78;6246250;23;20008;-43
2022/07/07 01:01:43;;;;;;;3.15;0.70;;;;;;;27.56;35.31;102634.13;6246440;23;20008;-47
2022/07/07 01:04:12;;;;;;;3.42;0.70;;;;;;;27.52;35.55;102628.75;6219545;23;20000;-43
2022/07/07 01:06:41;;;;;;;2.10;0.60;;;;;;;27.46;35.74;102624.22;6219333;23;20074;-43
2022/07/07 01:09:10;;;;;;;1.55;0.77;;;;;;;27.51;35.60;102632.22;6245047;23;20446;-44
2022/07/07 01:11:58;;;;;;;1.63;0.70;;;;;;;27.47;35.41;102630.41;6246081;23;20083;-44
2022/07/07 01:14:27;;;;;;;4.15;0.85;;;;;;;27.42;35.57;102620.59;6245595;23;20296;-43
2022/07/07 01:16:55;;;;;;;2.08;0.80;;;;;;;27.48;35.49;102629.50;6245710;23;20011;-42
2022/07/07 01:19:24;;;;;;;3.60;0.82;;;;;;;27.46;35.59;102618.94;6246379;23;20443;-47
2022/07/07 01:22:01;;;;;;;3.05;0.52;;;;;;;27.42;35.53;102617.97;6245310;23;20011;-48
2022/07/07 01:24:31;;;;;;;1.92;0.60;;;;;;;27.49;35.31;102619.03;6246226;23;20415;-44
2022/07/07 01:27:05;;;;;;;1.33;0.63;;;;;;;27.42;35.48;102615.31;6246283;23;20000;-43
2022/07/07 01:29:43;;;;;;;;;;;;;;;27.45;35.50;102622.41;6246724;23;20004;-44
2022/07/07 01:32:11;;;;;;;1.55;0.57;;;;;;;27.36;35.53;102604.63;6245550;23;19914;-43
2022/07/07 01:34:41;;;;;;;3.83;0.90;;;;;;;27.40;35.75;102614.38;6244203;23;20439;-49
2022/07/07 01:37:09;;;;;;;2.33;0.80;;;;;;;27.43;35.45;102621.47;6245895;23;20415;-44
2022/07/07 01:39:39;;;;;;;0.85;0.43;;;;;;;27.38;35.48;102616.09;6244420;23;20428;-46
2022/07/07 01:42:09;;;;;;;2.80;0.80;;;;;;;27.41;35.46;102621.44;6246048;23;20387;-45
2022/07/07 01:44:38;;;;;;;1.63;0.60;;;;;;;27.43;35.19;102614.47;6219380;23;20008;-44
2022/07/07 01:47:07;;;;;;;1.45;0.60;;;;;;;27.37;35.23;102601.13;6244243;23;20004;-42
2022/07/07 01:49:35;;;;;;;3.00;0.73;;;;;;;27.38;35.22;102608.19;6219629;23;20428;-42
2022/07/07 01:52:04;;;;;;;3.20;0.88;;;;;;;27.39;35.23;102612.59;6246079;23;20004;-42
2022/07/07 01:54:34;;;;;;;1.90;0.57;;;;;;;27.42;35.06;102601.22;6246009;23;20011;-42
2022/07/07 01:57:02;;;;;;;2.55;0.77;;;;;;;27.42;35.09;102603.88;6245806;23;20011;-43
2022/07/07 01:59:30;;;;;;;2.20;0.73;;;;;;;27.39;35.38;102609.06;6219662;23;20023;-42
2022/07/07 02:01:59;;;;;;;1.42;0.60;;;;;;;27.27;35.24;102594.75;6246037;23;20423;-43
2022/07/07 02:04:27;;;;;;;1.90;0.70;;;;;;;27.33;35.08;102604.53;6244941;23;20083;-43
2022/07/07 02:06:55;;;;;;;2.45;0.90;;;;;;;27.33;35.18;102599.28;6245529;23;20332;-42
2022/07/07 02:09:24;;;;;;;2.60;0.60;;;;;;;27.25;35.52;102600.84;6245657;23;20084;-42
2022/07/07 02:11:53;;;;;;;3.70;1.30;;;;;;;27.22;35.43;102601.63;6244982;23;20011;-43
2022/07/07 02:14:21;;;;;;;3.10;0.63;;;;;;;27.05;35.29;102585.41;6247550;23;20340;-43
2022/07/07 02:16:50;;;;;;;2.58;0.88;;;;;;;27.05;35.39;102589.81;6247601;23;20006;-45
2022/07/07 02:19:19;;;;;;;1.42;0.50;;;;;;;26.99;35.57;102595.78;6221510;23;20013;-43
2022/07/07 02:21:48;;;;;;;2.67;0.70;;;;;;;26.80;35.63;102573.34;6247773;23;20454;-45
2022/07/07 02:24:16;;;;;;;3.70;0.47;;;;;;;26.95;35.60;102586.03;6247594;23;20004;-43
2022/07/07 02:26:43;;;;;;;1.73;0.88;;;;;;;26.92;35.58;102578.06;6247284;23;20004;-45
2022/07/07 02:29:12;;;;;;;1.00;0.55;;;;;;;26.81;35.36;102564.59;6247720;23;20009;-48
2022/07/07 02:31:41;;;;;;;2.10;0.40;;;;;;;26.98;35.54;102586.09;6247412;23;20035;-49
2022/07/07 02:34:10;;;;;;;1.35;0.50;;;;;;;27.01;35.53;102587.94;6247658;23;20439;-48
2022/07/07 02:36:37;;;;;;;3.20;0.65;;;;;;;27.05;35.35;102581.91;6247487;23;20004;-47
2022/07/07 02:39:06;;;;;;;2.05;0.68;;;;;;;27.03;35.35;102587.13;6220359;23;20015;-45
2022/07/07 02:41:35;;;;;;;2.95;0.90;;;;;;;26.98;35.25;102586.09;6247675;23;20054;-45
2022/07/07 02:44:03;;;;;;;2.30;1.00;;;;;;;26.94;35.43;102579.00;6247118;23;20067;-45
2022/07/07 02:46:31;;;;;;;3.00;0.85;;;;;;;26.88;35.59;102582.34;6247272;23;20058;-44
2022/07/07 02:49:00;;;;;;;1.25;0.50;;;;;;;26.93;35.26;102587.75;6247105;23;20027;-44
2022/07/07 02:51:28;;;;;;;2.10;0.50;;;;;;;26.91;35.36;102578.91;6246991;23;20004;-43
2022/07/07 02:53:57;;;;;;;4.43;0.60;;;;;;;26.93;35.22;102582.47;6247042;23;20019;-44
2022/07/07 02:56:26;;;;;;;3.75;0.80;;;;;;;26.84;35.13;102589.25;6247029;23;20339;-43
2022/07/07 02:58:54;;;;;;;1.10;0.50;;;;;;;26.80;35.14;102587.44;6247062;23;20000;-49
2022/07/07 03:01:23;;;;;;;2.50;0.77;;;;;;;26.65;35.55;102582.59;6247525;23;20003;-43
2022/07/07 03:03:52;;;;;;;1.67;0.75;;;;;;;26.69;35.41;102586.19;6247503;23;20004;-44
2022/07/07 03:06:20;;;;;;;2.78;0.40;;;;;;;26.62;35.48;102573.72;6246887;23;20023;-45
2022/07/07 03:08:49;;;;;;;4.10;1.00;;;;;;;26.74;35.23;102588.94;6246928;23;20004;-45
2022/07/07 03:11:17;;;;;;;0.90;0.30;;;;;;;26.64;35.29;102586.06;6247024;23;20008;-45
2022/07/07 03:13:46;;;;;;;3.10;0.80;;;;;;;26.69;35.25;102591.47;6247305;23;20004;-48
2022/07/07 03:16:14;;;;;;;1.98;0.70;;;;;;;26.71;35.23;102595.03;6246831;23;20028;-43
2022/07/07 03:18:43;;;;;;;2.53;0.60;;;;;;;26.72;35.28;102596.81;6246504;23;20004;-42
2022/07/07 03:21:11;;;;;;;2.85;0.77;;;;;;;26.74;35.12;102596.84;6246822;23;20355;-43
2022/07/07 03:23:40;;;;;;;3.25;0.63;;;;;;;26.74;35.09;102599.47;6246898;23;20075;-43
2022/07/07 03:26:09;;;;;;;2.60;0.70;;;;;;;26.77;35.06;102596.94;6247111;23;20060;-49
2022/07/07 03:28:37;;;;;;;4.18;0.82;;;;;;;26.77;35.15;102591.66;6246818;23;20340;-43
2022/07/07 03:31:06;;;;;;;2.15;0.47;;;;;;;26.77;35.33;102592.56;6246880;23;20004;-45
2022/07/07 03:33:34;;;;;;;2.85;0.80;;;;;;;26.67;35.49;102591.44;6219868;23;20371;-44
2022/07/07 03:36:03;;;;;;;1.58;0.55;;;;;;;26.70;35.20;102593.25;6246660;23;20075;-43
2022/07/07 03:38:31;;;;;;;3.60;0.98;;;;;;;26.65;35.60;102592.22;6246621;23;20049;-43
2022/07/07 03:40:59;;;;;;;3.35;0.55;;;;;;;26.64;35.56;102601.88;6246898;23;20015;-46
2022/07/07 03:43:28;;;;;;;1.65;0.47;;;;;;;26.60;35.68;102594.72;6246907;23;20188;-43
2022/07/07 03:45:58;;;;;;;1.42;0.50;;;;;;;26.63;35.55;102592.19;6246407;23;20010;-51
2022/07/07 03:48:26;;;;;;;2.72;0.60;;;;;;;26.57;35.66;102594.63;6246298;23;20004;-47
2022/07/07 03:50:54;;;;;;;1.95;0.60;;;;;;;26.45;35.72;102582.06;6220252;23;20011;-47
2022/07/07 03:53:23;;;;;;;1.02;0.57;;;;;;;26.62;35.59;102595.66;6219733;23;20436;-48
2022/07/07 03:55:52;;;;;;;1.05;0.50;;;;;;;26.61;35.73;102604.41;6246737;23;20004;-44
2022/07/07 03:58:20;;;;;;;1.70;0.70;;;;;;;26.59;35.78;102594.69;6246348;23;20336;-46
2022/07/07 04:00:48;;;;;;;1.23;0.60;;;;;;;26.57;35.70;102605.16;6246994;23;20042;-43
2022/07/07 04:03:17;;;;;;;2.67;0.73;;;;;;;26.41;35.85;102576.63;6246667;23;20004;-46
2022/07/07 04:05:46;;;;;;;1.70;0.40;;;;;;;26.57;35.81;102605.16;6246416;23;20058;-46
2022/07/07 04:08:14;;;;;;;2.15;0.73;;;;;;;26.49;36.13;102586.53;6244855;23;20031;-45
2022/07/07 04:10:43;;;;;;;2.63;0.82;;;;;;;26.61;35.79;102609.66;6246611;23;20339;-44
2022/07/07 04:13:11;;;;;;;1.80;0.70;;;;;;;26.37;36.00;102575.66;6246290;23;20015;-46
2022/07/07 04:15:40;;;;;;;1.88;0.75;;;;;;;26.50;35.99;102601.47;6246613;23;20024;-46
2022/07/07 04:18:09;;;;;;;0.98;0.50;;;;;;;26.48;35.94;102603.16;6246031;23;20000;-45
2022/07/07 04:20:37;;;;;;;2.15;0.68;;;;;;;26.50;35.99;102611.13;6246315;23;20452;-45
2022/07/07 04:23:06;;;;;;;2.40;0.70;;;;;;;26.55;36.17;102606.88;6246001;23;20335;-47
2022/07/07 04:25:35;;;;;;;1.52;0.60;;;;;;;26.51;35.97;102610.28;6246576;23;20004;-52
2022/07/07 04:28:02;;;;;;;2.38;0.70;;;;;;;26.44;35.95;102593.41;6220186;23;20000;-48
2022/07/07 04:30:30;;;;;;;2.03;0.80;;;;;;;26.54;35.94;102618.25;6246023;23;20008;-45
2022/07/07 04:32:59;;;;;;;2.67;1.13;;;;;;;26.65;36.04;102621.16;6246121;23;20000;-48
2022/07/07 04:35:28;;;;;;;2.40;0.63;;;;;;;26.50;36.04;102606.72;6246143;23;20071;-42
2022/07/07 04:37:57;;;;;;;1.73;0.50;;;;;;;26.41;36.41;102606.50;6246129;23;20075;-47
2022/07/07 04:40:25;;;;;;;2.35;1.00;;;;;;;26.53;36.26;102619.97;6245862;23;20020;-44
2022/07/07 04:42:54;;;;;;;3.28;1.00;;;;;;;26.47;36.51;102621.56;6246045;23;20014;-43
2022/07/07 04:45:22;;;;;;;2.35;0.90;;;;;;;26.33;36.26;102598.38;6245863;23;20008;-47
2022/07/07 04:47:50;;;;;;;0.85;0.45;;;;;;;26.44;36.55;102617.09;6246488;23;20491;-46
2022/07/07 04:50:18;;;;;;;2.17;0.45;;;;;;;26.42;36.30;102629.31;6245787;23;20028;-42
2022/07/07 04:52:45;;;;;;;1.75;0.60;;;;;;;26.43;36.72;102636.38;6245891;23;20000;-48
2022/07/07 04:55:14;;;;;;;2.67;0.98;;;;;;;26.32;36.60;102625.53;6244983;23;20000;-50
2022/07/07 04:57:43;;;;;;;2.03;0.82;;;;;;;26.35;36.90;102627.34;6246259;23;20027;-49
2022/07/07 05:00:11;;;;;;;0.90;0.40;;;;;;;26.32;37.06;102637.78;6246052;23;20011;-49
2022/07/07 05:02:40;;;;;;;2.42;0.90;;;;;;;26.32;36.67;102629.88;6219651;23;20435;-44
2022/07/07 05:05:09;;;;;;;2.72;0.80;;;;;;;26.34;36.85;102631.72;6245681;23;20000;-45
2022/07/07 05:07:37;;;;;;;4.75;1.02;;;;;;;26.33;36.71;102629.03;6246144;23;20449;-44
2022/07/07 05:10:06;;;;;;;1.65;0.70;;;;;;;26.35;37.12;102633.53;6246279;23;20045;-47
2022/07/07 05:12:35;;;;;;;1.63;0.63;;;;;;;26.36;36.84;102634.41;6245164;23;20493;-47
2022/07/07 05:15:03;;;;;;;2.03;0.88;;;;;;;26.37;36.88;102623.03;6218758;23;20479;-47
2022/07/07 05:17:31;;;;;;;2.30;0.70;;;;;;;26.39;36.91;102626.59;6245653;23;20028;-48
2022/07/07 05:20:00;;;;;;;3.28;0.90;;;;;;;26.42;36.76;102631.97;6246078;23;20022;-45
2022/07/07 05:22:28;;;;;;;1.38;0.57;;;;;;;26.36;36.87;102629.13;6245647;23;20016;-47
2022/07/07 05:24:57;;;;;;;2.35;0.85;;;;;;;26.42;36.93;102633.69;6245958;23;20020;-43
2022/07/07 05:27:26;;;;;;;3.63;0.70;;;;;;;26.39;37.11;102634.50;6245879;23;20004;-47
2022/07/07 05:29:55;;;;;;;6.68;1.00;;;;;;;26.43;36.94;102624.94;6245957;23;20004;-43
2022/07/07 05:32:23;;;;;;;2.78;0.95;;;;;;;26.41;37.02;102624.91;6245765;23;20326;-44
2022/07/07 05:34:52;;;;;;;2.42;0.88;;;;;;;26.30;36.99;102603.53;6245202;23;20011;-43
2022/07/07 05:37:20;;;;;;;3.05;0.63;;;;;;;26.41;37.20;102622.28;6245793;23;20079;-47
2022/07/07 05:39:49;;;;;;;1.90;0.70;;;;;;;26.32;36.88;102600.94;6245179;23;20436;-45
2022/07/07 05:42:18;;;;;;;1.90;0.60;;;;;;;26.42;37.12;102628.41;6245319;23;20016;-43
2022/07/07 05:44:46;;;;;;;1.95;0.60;;;;;;;26.47;37.09;102626.81;6245503;23;20031;-45
2022/07/07 05:47:15;;;;;;;1.92;0.63;;;;;;;26.41;36.85;102606.50;6245621;23;20007;-43
2022/07/07 05:49:43;;;;;;;4.50;1.25;;;;;;;26.52;36.94;102626.09;6245416;23;20011;-47
2022/07/07 05:52:12;;;;;;;1.38;0.68;;;;;;;26.45;37.24;102629.41;6244060;23;20012;-49
2022/07/07 05:54:40;;;;;;;1.83;0.68;;;;;;;26.47;36.93;102627.72;6245350;23;20004;-44
2022/07/07 05:57:07;;;;;;;2.28;0.73;;;;;;;26.44;37.55;102631.97;6245832;23;20378;-44
2022/07/07 05:59:36;;;;;;;3.15;0.85;;;;;;;26.50;37.08;102633.06;6244948;23;20000;-47
2022/07/07 06:02:05;;;;;;;1.40;0.60;;;;;;;26.44;37.19;102627.63;6218899;23;20011;-47
2022/07/07 06:04:33;;;;;;;4.65;0.75;;;;;;;26.50;37.27;102629.53;6244266;23;20012;-47
2022/07/07 06:07:01;;;;;;;1.30;0.52;;;;;;;26.54;37.45;102634.94;6245324;23;20083;-49
2022/07/07 06:09:30;;;;;;;2.70;1.00;;;;;;;26.62;37.16;102642.16;6245349;23;20000;-42
2022/07/07 06:11:59;;;;;;;3.60;0.88;;;;;;;26.71;36.96;102654.69;6245175;23;20427;-43
2022/07/07 06:14:28;;;;;;;2.45;0.93;;;;;;;26.69;37.15;102659.91;6218524;23;20350;-44
2022/07/07 06:16:56;;;;;;;1.92;0.77;;;;;;;26.71;37.16;102658.19;6245491;23;20432;-46
2022/07/07 06:19:24;;;;;;;1.30;0.50;;;;;;;26.75;37.11;102665.34;6245314;23;20082;-45
2022/07/07 06:21:53;;;;;;;2.03;0.75;;;;;;;26.76;36.81;102659.22;6218869;23;20004;-48
2022/07/07 06:24:22;;;;;;;2.88;0.90;;;;;;;26.82;36.73;102669.94;6245758;23;20004;-44
2022/07/07 06:26:51;;;;;;;2.38;0.73;;;;;;;26.81;36.99;102672.56;6245882;23;20004;-43
2022/07/07 06:29:19;;;;;;;4.30;0.93;;;;;;;26.84;37.06;102670.88;6245556;23;20000;-43
2022/07/07 06:31:48;;;;;;;0.70;0.60;;;;;;;26.83;36.94;102660.31;6245252;23;20016;-43
2022/07/07 06:34:16;;;;;;;2.65;0.70;;;;;;;26.88;36.82;102673.63;6218788;23;20004;-46
2022/07/07 06:36:45;;;;;;;10.63;0.73;;;;;;;26.85;36.72;102666.53;6218446;23;20008;-42
2022/07/07 06:39:13;;;;;;;4.47;0.85;;;;;;;26.91;36.96;102678.97;6245346;23;20099;-47
2022/07/07 06:41:42;;;;;;;2.90;0.57;;;;;;;26.97;36.86;102679.16;6245515;23;20012;-48
2022/07/07 06:44:10;;;;;;;2.97;0.93;;;;;;;26.95;36.77;102681.72;6245671;23;20020;-45
2022/07/07 06:46:39;;;;;;;6.07;1.02;;;;;;;26.91;36.88;102676.34;6218884;23;20057;-49
2022/07/07 06:49:07;;;;;;;3.63;0.85;;;;;;;26.91;37.04;102684.25;6244081;23;20053;-44
2022/07/07 06:51:36;;;;;;;1.90;0.60;;;;;;;26.97;37.09;102679.16;6244862;23;20015;-44
2022/07/07 06:54:05;;;;;;;5.63;0.73;;;;;;;26.98;37.15;102678.28;6245558;23;20000;-45
2022/07/07 06:56:34;;;;;;;2.90;0.80;;;;;;;26.97;37.00;102685.28;6245035;23;20000;-45
2022/07/07 06:59:02;;;;;;;2.67;0.60;;;;;;;26.94;37.19;102681.69;6218810;23;20004;-47
2022/07/07 07:01:32;;;;;;;5.70;1.02;;;;;;;27.00;37.05;102692.38;6247163;23;20031;-47
2022/07/07 07:04:00;;;;;;;3.20;0.80;;;;;;;26.98;37.31;102699.34;6246807;23;20012;-47
2022/07/07 07:06:29;;;;;;;2.78;0.90;;;;;;;27.03;37.54;102705.63;6247395;23;20027;-44
2022/07/07 07:08:58;;;;;;;2.88;0.80;;;;;;;27.03;37.45;102703.00;6247139;23;20074;-46
2022/07/07 07:11:27;;;;;;;3.63;0.80;;;;;;;27.02;37.53;102701.22;6247371;23;20039;-46
2022/07/07 07:13:58;;;;;;;7.38;0.95;;;;;;;27.05;37.37;102708.34;6246868;23;20043;-44
2022/07/07 07:16:25;;;;;;;4.70;1.20;;;;;;;27.03;37.34;102707.41;6246928;23;20012;-49
2022/07/07 07:18:53;;;;;;;5.97;1.27;;;;;;;27.03;37.80;102708.28;6246790;23;20072;-44
2022/07/07 07:21:22;;;;;;;4.75;0.80;;;;;;;26.97;37.97;102711.63;6246775;23;20004;-43
2022/07/07 07:23:51;;;;;;;1.83;0.85;;;;;;;26.93;37.69;102708.88;6220638;23;20005;-47
2022/07/07 07:26:18;;;;;;;3.28;0.82;;;;;;;26.95;37.87;102704.56;6246722;23;20024;-46
2022/07/07 07:28:46;;;;;;;2.22;0.63;;;;;;;26.93;38.04;102716.78;6246198;23;20007;-43
2022/07/07 07:31:15;;;;;;;2.85;0.93;;;;;;;26.97;38.03;102722.16;6246975;23;20479;-43
2022/07/07 07:33:43;;;;;;;8.65;1.00;;;;;;;26.97;37.99;102721.28;6194776;23;20390;-48
2022/07/07 07:36:11;;;;;;;7.03;1.02;;;;;;;26.94;38.37;102723.84;6246686;23;20000;-44
2022/07/07 07:38:41;;;;;;;2.40;0.90;;;;;;;26.99;38.01;102731.00;6246248;23;20000;-43
2022/07/07 07:41:11;;;;;;;2.65;0.93;;;;;;;26.97;38.17;102722.16;6247385;23;20051;-45
2022/07/07 07:43:39;;;;;;;2.25;0.85;;;;;;;27.01;37.87;102723.13;6246711;23;20368;-43
2022/07/07 07:46:07;;;;;;;5.90;0.95;;;;;;;27.04;37.97;102730.25;6247066;23;20016;-43
2022/07/07 07:48:36;;;;;;;4.50;1.13;;;;;;;27.09;38.01;102732.16;6246745;23;20019;-46
2022/07/07 07:51:05;;;;;;;1.33;0.85;;;;;;;27.13;37.70;102734.03;6246994;23;20328;-46
2022/07/07 07:53:33;;;;;;;3.28;0.80;;;;;;;27.16;37.60;102730.59;6246813;23;20138;-44
2022/07/07 07:56:02;;;;;;;2.80;0.80;;;;;;;27.19;37.14;102727.13;6247047;23;20004;-44
2022/07/07 07:58:30;;;;;;;2.30;0.90;;;;;;;27.19;37.49;102725.41;6246865;23;20008;-42
2022/07/07 08:00:59;;;;;;;1.90;0.80;;;;;;;27.17;37.92;102735.00;6247022;23;20046;-43
2022/07/07 08:03:28;;;;;;;3.63;1.17;;;;;;;27.07;37.95;102718.06;6246752;23;20004;-43
2022/07/07 08:05:56;;;;;;;2.90;0.88;;;;;;;27.12;38.07;102726.97;6246838;23;20062;-44
2022/07/07 08:08:25;;;;;;;2.85;0.77;;;;;;;27.18;37.71;102723.63;6246118;23;20324;-44
2022/07/07 08:10:53;;;;;;;1.95;0.70;;;;;;;27.15;38.00;102729.69;6220666;23;20008;-43
2022/07/07 08:13:22;;;;;;;6.82;1.50;;;;;;;27.17;38.16;102732.38;6247047;23;20000;-43
2022/07/07 08:15:50;;;;;;;3.70;1.02;;;;;;;27.11;38.08;102725.19;6247102;23;20482;-44
2022/07/07 08:18:19;;;;;;;3.20;1.08;;;;;;;27.13;38.06;102734.03;6246567;23;20007;-46
2022/07/07 08:20:48;;;;;;;2.53;1.08;;;;;;;27.06;37.92;102723.25;6246813;23;20065;-43
2022/07/07 08:23:17;;;;;;;2.72;0.85;;;;;;;27.13;38.22;102741.94;6246794;23;20335;-44
2022/07/07 08:25:45;;;;;;;4.75;1.00;;;;;;;27.13;38.02;102735.75;6219803;23;20051;-44
2022/07/07 08:28:14;;;;;;;3.08;1.10;;;;;;;27.11;37.79;102727.84;6246824;23;20005;-43
2022/07/07 08:30:42;;;;;;;2.38;0.93;;;;;;;27.20;37.71;102736.81;6246657;23;20000;-43
2022/07/07 08:33:11;;;;;;;2.70;1.15;;;;;;;27.19;37.76;102740.31;6246389;23;20027;-43
2022/07/07 08:35:40;;;;;;;4.72;1.40;;;;;;;27.15;38.21;102744.59;6246894;23;20058;-44
2022/07/07 08:38:09;;;;;;;3.25;1.05;;;;;;;27.12;38.17;102737.53;6246116;23;20063;-44
2022/07/07 08:40:38;;;;;;;2.65;1.00;;;;;;;27.19;37.89;102740.31;6246462;23;20678;-44
2022/07/07 08:43:06;;;;;;;1.83;0.70;;;;;;;27.15;38.09;102742.84;6219767;23;20004;-45
2022/07/07 08:45:35;;;;;;;1.80;0.85;;;;;;;27.15;38.08;102744.59;6246299;23;20075;-44
2022/07/07 08:48:04;;;;;;;5.07;1.13;;;;;;;27.25;37.83;102748.38;6245288;23;20008;-43
2022/07/07 08:50:34;;;;;;;3.42;0.90;;;;;;;27.22;37.94;102751.81;6219625;23;20000;-44
2022/07/07 08:53:03;;;;;;;4.07;0.90;;;;;;;27.29;37.75;102758.16;6219425;23;20001;-46
2022/07/07 08:55:33;;;;;;;2.97;1.02;;;;;;;27.23;38.05;102748.31;6246068;22;20008;-50
2022/07/07 08:58:01;;;;;;;4.10;0.93;;;;;;;27.11;38.10;102733.09;6246369;23;20003;-44
2022/07/07 09:00:30;;;;;;;2.53;0.80;;;;;;;27.34;37.58;102751.25;6219470;23;20012;-44
2022/07/07 09:03:03;;;;;;;3.17;0.90;;;;;;;27.34;37.96;102753.88;6245969;23;20069;-44
2022/07/07 09:05:37;;;;;;;1.63;0.70;;;;;;;27.37;37.78;102756.63;6219044;23;20081;-44
2022/07/07 09:08:25;;;;;;;2.67;0.77;;;;;;;27.28;37.77;102759.00;6246274;23;20015;-44
2022/07/07 09:10:54;;;;;;;2.13;0.75;;;;;;;27.27;38.17;102755.47;6245410;23;20000;-44
2022/07/07 09:13:29;;;;;;;4.72;0.90;;;;;;;27.30;37.72;102754.69;6245933;23;20011;-41
2022/07/07 09:16:01;;;;;;;4.25;1.13;;;;;;;27.32;37.96;102745.03;6246440;23;20007;-42
2022/07/07 09:18:44;;;;;;;7.20;1.10;;;;;;;27.30;37.70;102744.16;6246315;23;20075;-42
2022/07/07 09:21:32;;;;;;;1.92;0.80;;;;;;;27.36;37.85;102756.59;6246565;23;20016;-42
2022/07/07 09:24:02;;;;;;;3.75;1.00;;;;;;;27.34;37.76;102748.63;6245977;23;20000;-43
2022/07/07 09:26:53;;;;;;;2.15;0.77;;;;;;;27.38;38.09;102757.53;6219438;23;20000;-45
2022/07/07 09:29:22;;;;;;;3.08;0.98;;;;;;;27.45;37.70;102759.44;6244317;23;20027;-44
2022/07/07 09:32:03;;;;;;;0.95;0.45;;;;;;;27.43;37.73;102751.53;6218905;23;20436;-44
2022/07/07 09:34:36;;;;;;;1.63;0.70;;;;;;;27.46;37.68;102755.13;6245215;23;20011;-48
2022/07/07 09:39:55;;;;;;;2.25;0.73;;;;;;;27.53;37.80;102762.31;6234900;23;20020;-47
2022/07/07 09:42:29;;;;;;;3.10;0.73;;;;;;;27.40;37.48;102753.16;6219701;23;20004;-42
2022/07/07 09:45:09;;;;;;;3.85;1.30;;;;;;;27.43;37.58;102761.16;6219208;23;20012;-42
2022/07/07 09:47:38;;;;;;;3.20;0.90;;;;;;;27.37;37.63;102740.81;6245036;23;20008;-44
2022/07/07 09:50:10;;;;;;;3.13;0.95;;;;;;;27.51;37.47;102764.03;6245941;23;20000;-42
2022/07/07 09:52:42;;;;;;;2.80;0.85;;;;;;;27.43;38.01;102762.06;6219576;23;20383;-42
2022/07/07 09:55:12;;;;;;;6.00;1.40;;;;;;;27.52;37.71;102760.53;6244667;23;20000;-41
2022/07/07 09:57:43;;;;;;;2.33;0.90;;;;;;;27.48;37.79;102759.56;6219096;23;20424;-42
2022/07/07 10:00:12;;;;;;;4.55;1.30;;;;;;;27.41;37.53;102750.59;6219580;23;20316;-43
2022/07/07 10:02:41;;;;;;;5.53;1.10;;;;;;;27.49;37.53;102756.09;6245996;23;20009;-43
2022/07/07 10:05:10;;;;;;;6.35;1.17;;;;;;;27.54;37.32;102743.03;6244542;23;20004;-43
2022/07/07 10:07:38;;;;;;;3.90;1.27;;;;;;;27.60;37.44;102743.19;6245804;23;20004;-47
2022/07/07 10:10:08;;;;;;;2.78;1.00;;;;;;;27.59;37.80;102754.59;6244196;23;20000;-44
2022/07/07 10:12:45;;;;;;;5.22;0.90;;;;;;;27.52;37.68;102721.91;6219176;23;20063;-44
2022/07/07 10:15:14;;;;;;;6.63;1.00;;;;;;;27.60;37.59;102741.44;6219352;23;20009;-43
2022/07/07 10:17:44;;;;;;;3.58;1.05;;;;;;;27.53;38.47;102746.50;6245809;23;20415;-43
2022/07/07 10:20:11;;;;;;;2.20;0.70;;;;;;;27.58;37.87;102742.25;6245407;23;20007;-47
2022/07/07 10:22:40;;;;;;;2.17;0.90;;;;;;;27.53;38.51;102741.25;6218754;23;20343;-43
2022/07/07 10:25:11;;;;;;;3.30;0.80;;;;;;;27.60;37.91;102751.09;6219500;23;20011;-44
2022/07/07 10:27:42;;;;;;;3.42;1.00;;;;;;;27.75;37.50;102763.75;6245623;23;20340;-43
2022/07/07 10:30:11;;;;;;;2.88;0.95;;;;;;;27.69;37.56;102745.19;6218678;23;20454;-43
2022/07/07 10:32:41;;;;;;;2.42;0.75;;;;;;;27.73;37.98;102761.09;6245805;23;20004;-45
2022/07/07 10:35:12;;;;;;;6.18;1.38;;;;;;;27.70;37.48;102741.69;6247172;23;20004;-44
2022/07/07 10:37:52;;;;;;;4.75;0.90;;;;;;;27.78;37.43;102757.69;6220326;23;20012;-44
2022/07/07 10:40:23;;;;;;;3.95;1.00;;;;;;;27.71;38.10;102748.75;6247396;23;20016;-45
2022/07/07 10:42:58;;;;;;;2.38;0.90;;;;;;;27.54;38.15;102721.94;6220548;23;20011;-44
2022/07/07 10:45:28;;;;;;;2.10;0.88;;;;;;;27.81;37.83;102742.84;6247593;23;20090;-43
2022/07/07 10:47:56;;;;;;;2.17;0.90;;;;;;;27.81;37.81;102740.19;6220801;23;20313;-43
2022/07/07 10:50:32;;;;;;;3.65;1.00;;;;;;;27.80;37.79;102735.78;6245272;23;20004;-43
2022/07/07 10:53:01;;;;;;;3.40;1.10;;;;;;;27.83;37.85;102740.22;6247130;23;20443;-43
2022/07/07 10:55:53;;;;;;;2.38;0.90;;;;;;;27.83;37.98;102741.13;6247301;23;20008;-43
2022/07/07 10:58:59;;;;;;;1.90;0.80;;;;;;;27.84;37.82;102753.47;6239688;23;20004;-43
2022/07/07 11:01:29;;;;;;;1.45;0.73;;;;;;;27.90;37.49;102758.88;6220193;23;20011;-43
2022/07/07 11:03:59;;;;;;;5.15;0.80;;;;;;;27.77;38.15;102742.72;6245412;23;20032;-45
2022/07/07 11:06:28;;;;;;;7.15;1.35;;;;;;;27.96;37.70;102752.88;6247049;23;20370;-43
2022/07/07 11:08:59;;;;;;;10.93;1.38;;;;;;;27.94;37.89;102745.75;6246474;23;20011;-43
2022/07/07 11:11:28;;;;;;;6.72;1.30;;;;;;;28.02;38.12;102753.00;6246514;23;20136;-44
2022/07/07 11:14:07;;;;;;;4.25;1.42;;;;;;;28.13;37.84;102749.78;6220992;23;20007;-43
2022/07/07 11:16:36;;;;;;;6.57;1.40;;;;;;;28.08;38.33;102761.94;6246242;23;20058;-43
2022/07/07 11:19:06;;;;;;;3.63;1.20;;;;;;;28.04;38.13;102756.56;6247496;23;20455;-43
2022/07/07 11:21:37;;;;;;;2.85;1.00;;;;;;;28.05;38.43;102755.72;6246816;23;20004;-45
2022/07/07 11:24:16;;;;;;;7.75;0.93;;;;;;;28.07;38.46;102752.22;6246806;23;20431;-43
2022/07/07 11:26:53;;;;;;;8.20;1.52;;;;;;;28.08;38.12;102746.97;6219858;23;20008;-43
2022/07/07 11:29:22;;;;;;;6.85;1.20;;;;;;;28.05;38.63;102739.00;6220024;23;20008;-43
2022/07/07 11:31:58;;;;;;;3.50;0.90;;;;;;;28.07;38.28;102750.47;6219985;23;20062;-45
2022/07/07 11:34:27;;;;;;;5.50;1.30;;;;;;;28.10;38.46;102750.59;6220109;23;20004;-44
2022/07/07 11:36:56;;;;;;;3.15;1.13;;;;;;;28.10;38.29;102755.00;6246747;23;20000;-47
2022/07/07 11:39:25;;;;;;;4.55;0.88;;;;;;;28.09;37.99;102754.03;6246615;23;20022;-43